Time;durP1;ratioP1;P1;durP2;ratioP2;P2;SDS_P1;SDS_P2;PMS_P1;PMS_P2;Temp;Humidity;BMP_temperature;BMP_pressure;BME280_temperature;BME280_humidity;BME280_pressure;Samples;Min_cycle;Max_cycle;Signal;HPM_P1;HPM_P2
2021/06/09 00:01:27;;;;;;;;;;;21.00;70.70;;;;;;4290440;33;20015;-87
2021/06/09 00:03:57;;;;;;;;;;;21.00;70.70;;;;;;4278300;33;26755;-90
2021/06/09 00:06:28;;;;;;;;;;;20.90;70.70;;;;;;4277893;33;32522;-91
2021/06/09 00:09:00;;;;;;;;;;;20.90;70.90;;;;;;4290294;33;21228;-89
2021/06/09 00:11:51;;;;;;;;;;;20.90;71.00;;;;;;4292788;33;20046;-90
2021/06/09 00:14:38;;;;;;;;;;;20.80;71.00;;;;;;4292702;33;20101;-90
2021/06/09 00:17:27;;;;;;;;;;;20.80;71.00;;;;;;4292586;33;20470;-91
2021/06/09 00:19:57;;;;;;;;;;;20.80;71.10;;;;;;4291433;33;20026;-91
2021/06/09 00:22:29;;;;;;;;;;;20.80;71.10;;;;;;4290841;33;20016;-90
2021/06/09 00:24:59;;;;;;;;;;;20.80;71.10;;;;;;4277973;33;35906;-90
2021/06/09 00:27:29;;;;;;;;;;;20.80;71.10;;;;;;4277783;33;33859;-90
2021/06/09 00:29:58;;;;;;;;;;;20.70;71.00;;;;;;4278221;33;28961;-91
2021/06/09 00:32:30;;;;;;;;;;;20.70;71.20;;;;;;4278495;33;20054;-91
2021/06/09 00:34:58;;;;;;;;;;;20.70;71.20;;;;;;4290655;33;20456;-91
2021/06/09 00:37:29;;;;;;;;;;;20.70;71.30;;;;;;4290202;33;20050;-90
2021/06/09 00:39:59;;;;;;;;;;;20.70;71.40;;;;;;4278604;33;20396;-90
2021/06/09 00:42:29;;;;;;;;;;;20.70;71.50;;;;;;4278785;33;20002;-90
2021/06/09 00:45:01;;;;;;;;;;;20.70;71.60;;;;;;4278456;33;20006;-91
2021/06/09 00:47:28;;;;;;;;;;;20.70;71.60;;;;;;4289699;33;20105;-90
2021/06/09 00:49:59;;;;;;;;;;;20.70;71.60;;;;;;4289069;33;33618;-90
2021/06/09 00:52:30;;;;;;;;;;;20.70;71.60;;;;;;4290002;33;20038;-89
2021/06/09 00:54:58;;;;;;;;;;;20.70;71.60;;;;;;4290398;33;20059;-89
2021/06/09 00:57:29;;;;;;;;;;;20.70;71.70;;;;;;4289219;33;21543;-90
2021/06/09 00:59:59;;;;;;;;;;;20.60;71.70;;;;;;4277968;33;23003;-89
2021/06/09 01:02:29;;;;;;;;;;;20.60;71.70;;;;;;4277805;33;20018;-89
2021/06/09 01:04:59;;;;;;;;;;;20.70;71.80;;;;;;4289325;33;27161;-89
2021/06/09 01:07:27;;;;;;;;;;;20.60;71.80;;;;;;4278335;33;20013;-89
2021/06/09 01:10:02;;;;;;;;;;;20.60;71.90;;;;;;4289832;33;20014;-88
2021/06/09 01:12:32;;;;;;;;;;;20.60;71.90;;;;;;4277389;33;28696;-89
2021/06/09 01:15:07;;;;;;;;;;;20.60;72.00;;;;;;4277609;33;20408;-89
2021/06/09 01:17:38;;;;;;;;;;;20.60;72.00;;;;;;4289503;33;20002;-89
2021/06/09 01:20:09;;;;;;;;;;;20.60;72.10;;;;;;4277390;33;31034;-89
2021/06/09 01:22:39;;;;;;;;;;;20.60;72.10;;;;;;4277352;33;29204;-89
2021/06/09 01:25:07;;;;;;;;;;;20.60;72.10;;;;;;4278085;33;20020;-90
2021/06/09 01:27:37;;;;;;;;;;;20.50;72.10;;;;;;4289618;33;20045;-90
2021/06/09 01:30:08;;;;;;;;;;;20.50;72.10;;;;;;4290075;33;20062;-89
2021/06/09 01:32:41;;;;;;;;;;;20.50;72.10;;;;;;4293107;33;20065;-88
2021/06/09 01:35:14;;;;;;;;;;;20.50;72.30;;;;;;4293081;33;20005;-90
2021/06/09 01:37:42;;;;;;;;;;;20.50;72.30;;;;;;4279927;33;27902;-90
2021/06/09 01:40:11;;;;;;;;;;;20.50;72.30;;;;;;4280781;33;20395;-89
2021/06/09 01:42:41;;;;;;;;;;;20.40;72.10;;;;;;4292501;33;20026;-89
2021/06/09 01:45:15;;;;;;;;;;;20.40;72.20;;;;;;4280537;33;20020;-89
2021/06/09 01:47:42;;;;;;;;;;;20.40;72.30;;;;;;4280113;33;20002;-89
2021/06/09 01:50:12;;;;;;;;;;;20.40;72.30;;;;;;4291579;33;35278;-88
2021/06/09 01:52:42;;;;;;;;;;;20.40;72.30;;;;;;4279001;33;39268;-90
2021/06/09 01:55:14;;;;;;;;;;;20.40;72.40;;;;;;4279826;33;31474;-89
2021/06/09 01:57:43;;;;;;;;;;;20.40;72.30;;;;;;4280370;33;20011;-89
2021/06/09 02:00:15;;;;;;;;;;;20.40;72.30;;;;;;4280225;33;20417;-89
2021/06/09 02:02:47;;;;;;;;;;;20.40;72.30;;;;;;4280420;33;20026;-90
2021/06/09 02:05:23;;;;;;;;;;;20.30;72.30;;;;;;4292259;33;19999;-89
2021/06/09 02:07:55;;;;;;;;;;;20.30;72.40;;;;;;4292290;33;20050;-90
2021/06/09 02:10:22;;;;;;;;;;;20.30;72.40;;;;;;4279775;33;23885;-90
2021/06/09 02:12:52;;;;;;;;;;;20.30;72.40;;;;;;4279294;33;31233;-89
2021/06/09 02:15:22;;;;;;;;;;;20.30;72.50;;;;;;4280481;33;20415;-89
2021/06/09 02:18:00;;;;;;;;;;;20.20;72.50;;;;;;4292463;33;20387;-89
2021/06/09 02:20:35;;;;;;;;;;;20.20;72.50;;;;;;4292054;33;20010;-90
2021/06/09 02:23:06;;;;;;;;;;;20.20;72.50;;;;;;4292396;33;20018;-90
2021/06/09 02:25:40;;;;;;;;;;;20.20;72.50;;;;;;4291993;33;20028;-90
2021/06/09 02:28:16;;;;;;;;;;;20.20;72.50;;;;;;4291866;33;20083;-89
2021/06/09 02:30:47;;;;;;;;;;;20.10;72.50;;;;;;4280062;33;20006;-89
2021/06/09 02:33:20;;;;;;;;;;;20.10;72.60;;;;;;4279378;33;26406;-89
2021/06/09 02:35:50;;;;;;;;;;;20.10;72.60;;;;;;4279908;33;20128;-89
2021/06/09 02:38:21;;;;;;;;;;;20.10;73.40;;;;;;4278560;33;31686;-89
2021/06/09 02:40:52;;;;;;;;;;;20.10;72.70;;;;;;4278882;33;33826;-88
2021/06/09 02:43:29;;;;;;;;;;;20.10;72.80;;;;;;4278785;33;20359;-88
2021/06/09 02:46:03;;;;;;;;;;;20.10;72.80;;;;;;4290472;33;34363;-88
2021/06/09 02:48:34;;;;;;;;;;;20.00;72.70;;;;;;4279940;33;20012;-89
2021/06/09 02:51:08;;;;;;;;;;;20.00;72.70;;;;;;4291633;33;20359;-89
2021/06/09 02:53:41;;;;;;;;;;;20.00;72.70;;;;;;4291379;33;20053;-89
2021/06/09 02:56:23;;;;;;;;;;;20.00;72.80;;;;;;4279627;33;20377;-88
2021/06/09 02:58:50;;;;;;;;;;;20.00;72.90;;;;;;4279109;33;20042;-88
2021/06/09 03:01:34;;;;;;;;;;;20.00;72.80;;;;;;4279517;33;20054;-88
2021/06/09 03:04:27;;;;;;;;;;;20.00;72.90;;;;;;4291208;33;20006;-87
2021/06/09 03:07:13;;;;;;;;;;;19.90;72.90;;;;;;4255211;33;20064;-88
2021/06/09 03:10:01;;;;;;;;;;;20.00;72.90;;;;;;4279054;33;20058;-87
2021/06/09 03:12:40;;;;;;;;;;;19.90;72.90;;;;;;4279291;33;20046;-88
2021/06/09 03:15:21;;;;;;;;;;;19.90;73.00;;;;;;4279263;33;20077;-87
2021/06/09 03:17:51;;;;;;;;;;;19.90;73.10;;;;;;4279183;33;20525;-87
2021/06/09 03:20:39;;;;;;;;;;;19.80;73.00;;;;;;4279141;33;20029;-87
2021/06/09 03:23:14;;;;;;;;;;;19.90;73.10;;;;;;4290910;33;20007;-87
2021/06/09 03:25:53;;;;;;;;;;;19.80;73.10;;;;;;4279126;33;20028;-87
2021/06/09 03:28:23;;;;;;;;;;;19.80;73.10;;;;;;4278916;33;20471;-87
2021/06/09 03:30:55;;;;;;;;;;;19.80;73.10;;;;;;4278627;33;20058;-87
2021/06/09 03:33:24;;;;;;;;;;;19.80;73.20;;;;;;4278762;33;20002;-87
2021/06/09 03:36:03;;;;;;;;;;;19.80;73.20;;;;;;4279000;33;20046;-86
2021/06/09 03:38:35;;;;;;;;;;;19.70;73.20;;;;;;4290902;33;20010;-87
2021/06/09 03:41:05;;;;;;;;;;;19.70;73.30;;;;;;4278630;33;20031;-87
2021/06/09 03:43:37;;;;;;;;;;;19.70;73.30;;;;;;4278405;33;20015;-86
2021/06/09 03:46:07;;;;;;;;;;;19.70;73.30;;;;;;4279004;33;20435;-87
2021/06/09 03:48:39;;;;;;;;;;;19.70;73.40;;;;;;4278323;33;20010;-86
2021/06/09 03:51:14;;;;;;;;;;;19.70;73.40;;;;;;4278248;33;20054;-87
2021/06/09 03:53:42;;;;;;;;;;;19.60;73.40;;;;;;4278473;33;20010;-87
2021/06/09 03:56:17;;;;;;;;;;;19.60;73.50;;;;;;4279016;33;19994;-86
2021/06/09 03:58:49;;;;;;;;;;;19.60;73.50;;;;;;4278707;33;19998;-87
2021/06/09 04:01:17;;;;;;;;;;;19.60;73.70;;;;;;4278605;33;20038;-86
2021/06/09 04:03:52;;;;;;;;;;;19.50;73.60;;;;;;4290369;33;20030;-86
2021/06/09 04:06:28;;;;;;;;;;;19.50;73.80;;;;;;4278615;33;20029;-86
2021/06/09 04:08:59;;;;;;;;;;;19.60;73.80;;;;;;4278085;33;20002;-87
2021/06/09 04:11:34;;;;;;;;;;;19.50;73.80;;;;;;4278297;33;20003;-86
2021/06/09 04:14:08;;;;;;;;;;;19.50;73.90;;;;;;4277977;33;20447;-87
2021/06/09 04:16:42;;;;;;;;;;;19.50;73.80;;;;;;4290710;33;20434;-86
2021/06/09 04:19:16;;;;;;;;;;;19.50;74.70;;;;;;4289911;33;20045;-86
2021/06/09 04:21:49;;;;;;;;;;;19.50;74.10;;;;;;4278222;33;20486;-87
2021/06/09 04:24:25;;;;;;;;;;;19.50;74.10;;;;;;4290444;33;20018;-87
2021/06/09 04:26:58;;;;;;;;;;;19.50;74.20;;;;;;4278645;33;20013;-87
2021/06/09 04:29:25;;;;;;;;;;;19.50;74.30;;;;;;4278341;33;20066;-87
2021/06/09 04:31:53;;;;;;;;;;;19.50;74.40;;;;;;4278139;33;20010;-87
2021/06/09 04:34:23;;;;;;;;;;;19.40;74.40;;;;;;4289747;33;20040;-87
2021/06/09 04:36:55;;;;;;;;;;;19.40;74.60;;;;;;4277669;33;19998;-87
2021/06/09 04:39:25;;;;;;;;;;;19.40;74.70;;;;;;4278109;33;20007;-87
2021/06/09 04:41:52;;;;;;;;;;;19.40;74.90;;;;;;4278112;33;20021;-87
2021/06/09 04:44:23;;;;;;;;;;;19.40;75.00;;;;;;4277769;33;20363;-87
2021/06/09 04:46:55;;;;;;;;;;;19.40;75.10;;;;;;4277629;33;20058;-87
2021/06/09 04:49:32;;;;;;;;;;;19.40;75.30;;;;;;4289431;33;20008;-87
2021/06/09 04:52:05;;;;;;;;;;;19.30;75.30;;;;;;4289993;33;20050;-86
2021/06/09 04:54:38;;;;;;;;;;;19.30;75.40;;;;;;4289806;33;20014;-87
2021/06/09 04:57:06;;;;;;;;;;;19.30;75.50;;;;;;4289871;33;20018;-87
2021/06/09 04:59:36;;;;;;;;;;;19.20;75.70;;;;;;4277388;33;20002;-86
2021/06/09 05:02:04;;;;;;;;;;;19.20;76.00;;;;;;4289133;33;20066;-87
2021/06/09 05:04:32;;;;;;;;;;;19.20;76.20;;;;;;4277474;33;20024;-87
2021/06/09 05:06:59;;;;;;;;;;;19.20;76.40;;;;;;4277268;33;20014;-87
2021/06/09 05:09:30;;;;;;;;;;;19.10;76.50;;;;;;4289581;33;20040;-86
2021/06/09 05:12:20;;;;;;;;;;;19.10;76.70;;;;;;4277694;33;20408;-86
2021/06/09 05:14:54;;;;;;;;;;;19.10;77.00;;;;;;4277956;33;20014;-86
2021/06/09 05:17:23;;;;;;;;;;;19.10;77.10;;;;;;4277621;33;19991;-86
2021/06/09 05:19:51;;;;;;;;;;;19.10;77.30;;;;;;4277696;33;20057;-86
2021/06/09 05:22:29;;;;;;;;;;;19.00;77.50;;;;;;4277712;33;20076;-86
2021/06/09 05:25:04;;;;;;;;;;;19.00;77.70;;;;;;4277794;33;20347;-85
2021/06/09 05:27:35;;;;;;;;;;;19.10;77.70;;;;;;4277757;33;20054;-85
2021/06/09 05:30:04;;;;;;;;;;;19.10;77.90;;;;;;4277758;33;20013;-85
2021/06/09 05:32:32;;;;;;;;;;;19.10;77.90;;;;;;4289735;33;20028;-86
2021/06/09 05:35:09;;;;;;;;;;;19.10;78.00;;;;;;4277985;33;20016;-85
2021/06/09 05:37:37;;;;;;;;;;;19.10;78.10;;;;;;4289673;33;20016;-85
2021/06/09 05:40:09;;;;;;;;;;;19.10;78.20;;;;;;4289226;33;20013;-85
2021/06/09 05:42:36;;;;;;;;;;;19.10;78.20;;;;;;4289615;33;20018;-84
2021/06/09 05:45:05;;;;;;;;;;;19.10;78.20;;;;;;4277554;33;20046;-85
2021/06/09 05:47:42;;;;;;;;;;;19.10;78.40;;;;;;4277447;33;20002;-84
2021/06/09 05:50:15;;;;;;;;;;;19.10;78.40;;;;;;4277436;33;20045;-84
2021/06/09 05:52:44;;;;;;;;;;;19.10;78.50;;;;;;4289654;33;20014;-85
2021/06/09 05:55:19;;;;;;;;;;;19.10;78.40;;;;;;4277398;33;20009;-85
2021/06/09 05:57:47;;;;;;;;;;;19.10;78.40;;;;;;4289168;33;19999;-85
2021/06/09 06:00:16;;;;;;;;;;;19.00;78.50;;;;;;4277269;33;20411;-85
2021/06/09 06:02:46;;;;;;;;;;;19.10;78.70;;;;;;4277347;33;20018;-85
2021/06/09 06:05:16;;;;;;;;;;;19.10;78.70;;;;;;4289525;33;20022;-85
2021/06/09 06:07:45;;;;;;;;;;;19.10;78.80;;;;;;4277012;33;20427;-85
2021/06/09 06:10:13;;;;;;;;;;;19.10;78.60;;;;;;4289446;33;20052;-86
2021/06/09 06:12:41;;;;;;;;;;;19.10;78.60;;;;;;4289486;33;20432;-85
2021/06/09 06:15:14;;;;;;;;;;;19.10;78.50;;;;;;4289318;33;20021;-86
2021/06/09 06:17:42;;;;;;;;;;;19.10;78.60;;;;;;4291047;33;20040;-86
2021/06/09 06:20:17;;;;;;;;;;;19.20;78.70;;;;;;4279653;33;20002;-86
2021/06/09 06:22:51;;;;;;;;;;;19.20;78.60;;;;;;4305185;33;20030;-86
2021/06/09 06:25:24;;;;;;;;;;;19.20;78.60;;;;;;4279898;33;19999;-86
2021/06/09 06:27:52;;;;;;;;;;;19.30;78.60;;;;;;4279988;33;20016;-87
2021/06/09 06:30:23;;;;;;;;;;;19.30;78.60;;;;;;4279769;33;19998;-86
2021/06/09 06:32:57;;;;;;;;;;;19.30;78.70;;;;;;4279605;33;20002;-86
2021/06/09 06:35:27;;;;;;;;;;;19.30;78.80;;;;;;4290787;33;20014;-86
2021/06/09 06:37:58;;;;;;;;;;;19.30;78.70;;;;;;4291108;33;20006;-86
2021/06/09 06:40:28;;;;;;;;;;;19.40;78.80;;;;;;4291691;33;20010;-86
2021/06/09 06:42:56;;;;;;;;;;;19.40;78.80;;;;;;4291132;33;20317;-87
2021/06/09 06:45:23;;;;;;;;;;;19.40;78.80;;;;;;4279483;33;20002;-86
2021/06/09 06:47:54;;;;;;;;;;;19.40;78.80;;;;;;4291815;33;20014;-86
2021/06/09 06:50:26;;;;;;;;;;;19.40;78.80;;;;;;4292031;33;20049;-85
2021/06/09 06:53:00;;;;;;;;;;;19.40;78.80;;;;;;4279408;33;20058;-86
2021/06/09 06:55:34;;;;;;;;;;;19.50;78.80;;;;;;4291129;33;20058;-86
2021/06/09 06:58:01;;;;;;;;;;;19.40;78.70;;;;;;4279282;33;20008;-85
2021/06/09 07:00:29;;;;;;;;;;;19.50;78.90;;;;;;4279318;33;20137;-85
2021/06/09 07:02:57;;;;;;;;;;;19.40;79.00;;;;;;4278977;33;20033;-85
2021/06/09 07:05:29;;;;;;;;;;;19.50;79.00;;;;;;4303573;33;19998;-85
2021/06/09 07:07:56;;;;;;;;;;;19.50;79.10;;;;;;4304407;33;20032;-86
2021/06/09 07:10:23;;;;;;;;;;;19.50;79.10;;;;;;4291036;33;20066;-85
2021/06/09 07:12:51;;;;;;;;;;;19.50;79.10;;;;;;4278631;33;20005;-85
2021/06/09 07:15:19;;;;;;;;;;;19.50;79.10;;;;;;4291237;33;20408;-85
2021/06/09 07:17:47;;;;;;;;;;;19.50;79.10;;;;;;4291117;33;20028;-84
2021/06/09 07:20:18;;;;;;;;;;;19.60;79.10;;;;;;4278875;33;20396;-85
2021/06/09 07:22:51;;;;;;;;;;;19.60;79.20;;;;;;4304255;33;20003;-84
2021/06/09 07:25:23;;;;;;;;;;;19.60;79.20;;;;;;4279034;33;20071;-84
2021/06/09 07:27:52;;;;;;;;;;;19.60;79.20;;;;;;4303390;33;22360;-85
2021/06/09 07:30:20;;;;;;;;;;;19.60;79.30;;;;;;4303312;33;20237;-84
2021/06/09 07:32:56;;;;;;;;;;;19.60;79.40;;;;;;4290250;33;20074;-85
2021/06/09 07:35:23;;;;;;;;;;;19.60;79.30;;;;;;4278421;33;20014;-84
2021/06/09 07:37:53;;;;;;;;;;;19.70;79.30;;;;;;4290492;33;20013;-84
2021/06/09 07:40:29;;;;;;;;;;;19.70;79.30;;;;;;4291066;33;20010;-84
2021/06/09 07:43:02;;;;;;;;;;;19.70;79.40;;;;;;4290930;33;20053;-84
2021/06/09 07:45:35;;;;;;;;;;;19.70;79.40;;;;;;4290692;33;20420;-84
2021/06/09 07:48:03;;;;;;;;;;;19.70;79.30;;;;;;4290294;33;20010;-84
2021/06/09 07:50:34;;;;;;;;;;;19.70;79.30;;;;;;4290963;33;20014;-84
2021/06/09 07:53:06;;;;;;;;;;;19.70;79.30;;;;;;4290370;33;20058;-84
2021/06/09 07:55:34;;;;;;;;;;;19.70;79.40;;;;;;4278354;33;20859;-84
2021/06/09 07:58:07;;;;;;;;;;;19.80;79.50;;;;;;4278178;33;20002;-83
2021/06/09 08:00:34;;;;;;;;;;;19.80;79.60;;;;;;4290692;33;20089;-83
2021/06/09 08:03:02;;;;;;;;;;;19.80;79.70;;;;;;4289986;33;20018;-84
2021/06/09 08:05:40;;;;;;;;;;;19.80;79.70;;;;;;4278558;33;20065;-83
2021/06/09 08:08:16;;;;;;;;;;;19.80;79.70;;;;;;4277843;33;20016;-83
2021/06/09 08:10:47;;;;;;;;;;;19.80;79.80;;;;;;4290875;33;20396;-83
2021/06/09 08:13:14;;;;;;;;;;;19.90;79.80;;;;;;4277531;33;20010;-83
2021/06/09 08:15:49;;;;;;;;;;;19.90;79.80;;;;;;4277924;33;20010;-83
2021/06/09 08:18:17;;;;;;;;;;;19.90;79.80;;;;;;4303200;33;20078;-83
2021/06/09 08:20:44;;;;;;;;;;;19.90;79.90;;;;;;4289401;33;20020;-83
2021/06/09 08:23:17;;;;;;;;;;;19.80;79.80;;;;;;4302683;33;20042;-83
2021/06/09 08:25:49;;;;;;;;;;;19.90;79.80;;;;;;4289586;33;20002;-83
2021/06/09 08:28:23;;;;;;;;;;;19.90;79.80;;;;;;4278533;33;20012;-83
2021/06/09 08:30:50;;;;;;;;;;;19.90;79.80;;;;;;4277921;33;20388;-82
2021/06/09 08:33:18;;;;;;;;;;;19.90;79.70;;;;;;4277566;33;20013;-82
2021/06/09 08:35:45;;;;;;;;;;;19.90;79.60;;;;;;4289609;33;20457;-82
2021/06/09 08:38:15;;;;;;;;;;;19.90;79.60;;;;;;4277716;33;21702;-82
2021/06/09 08:40:51;;;;;;;;;;;19.90;79.50;;;;;;4289348;33;19999;-82
2021/06/09 08:43:19;;;;;;;;;;;20.00;79.50;;;;;;4303166;33;20329;-82
2021/06/09 08:45:47;;;;;;;;;;;20.00;79.50;;;;;;4303034;33;20007;-82
2021/06/09 08:48:15;;;;;;;;;;;20.00;79.60;;;;;;4289602;33;20054;-81
2021/06/09 08:50:47;;;;;;;;;;;20.00;79.60;;;;;;4277942;33;20417;-82
2021/06/09 08:53:21;;;;;;;;;;;20.00;79.60;;;;;;4289916;33;20371;-82
2021/06/09 08:55:49;;;;;;;;;;;20.00;79.50;;;;;;4289082;33;20866;-82
2021/06/09 08:58:18;;;;;;;;;;;20.00;79.40;;;;;;4289106;33;20052;-82
2021/06/09 09:00:50;;;;;;;;;;;20.10;79.40;;;;;;4289253;33;20016;-82
2021/06/09 09:03:24;;;;;;;;;;;20.10;79.40;;;;;;4289203;33;20019;-81
2021/06/09 09:05:54;;;;;;;;;;;20.10;79.40;;;;;;4289102;33;20089;-81
2021/06/09 09:08:24;;;;;;;;;;;20.10;79.50;;;;;;4289235;33;20061;-82
2021/06/09 09:10:51;;;;;;;;;;;20.10;79.50;;;;;;4302817;33;20148;-81
2021/06/09 09:13:21;;;;;;;;;;;20.10;79.50;;;;;;4289669;33;20077;-81
2021/06/09 09:15:48;;;;;;;;;;;20.10;79.50;;;;;;4289244;33;20009;-82
2021/06/09 09:18:18;;;;;;;;;;;20.10;79.40;;;;;;4301806;33;35373;-83
2021/06/09 09:20:48;;;;;;;;;;;20.10;79.30;;;;;;4288946;33;28756;-82
2021/06/09 09:23:19;;;;;;;;;;;20.10;79.30;;;;;;4276600;33;40045;-83
2021/06/09 09:25:46;;;;;;;;;;;20.20;79.50;;;;;;4289645;33;20025;-82
2021/06/09 09:28:23;;;;;;;;;;;20.20;79.50;;;;;;4302498;33;20062;-82
2021/06/09 09:30:51;;;;;;;;;;;20.20;79.40;;;;;;4289431;33;20065;-82
2021/06/09 09:33:20;;;;;;;;;;;20.20;79.40;;;;;;4289379;33;19998;-82
2021/06/09 09:35:48;;;;;;;;;;;20.20;79.40;;;;;;4277183;33;20058;-82
2021/06/09 09:38:27;;;;;;;;;;;20.20;79.40;;;;;;4288937;33;20031;-81
2021/06/09 09:41:11;;;;;;;;;;;20.20;79.40;;;;;;4277825;33;20018;-82
2021/06/09 09:43:48;;;;;;;;;;;20.20;79.40;;;;;;4289719;33;20010;-82
2021/06/09 09:46:22;;;;;;;;;;;20.20;79.40;;;;;;4289612;33;20061;-82
2021/06/09 09:48:58;;;;;;;;;;;20.30;79.40;;;;;;4302343;33;20318;-82
2021/06/09 09:51:26;;;;;;;;;;;20.30;79.30;;;;;;4289696;33;20014;-82
2021/06/09 09:53:54;;;;;;;;;;;20.20;79.20;;;;;;4292124;33;20014;-81
2021/06/09 09:56:26;;;;;;;;;;;20.30;79.30;;;;;;4292711;33;20010;-82
2021/06/09 09:59:02;;;;;;;;;;;20.30;79.30;;;;;;4291978;33;20022;-82
2021/06/09 10:01:31;;;;;;;;;;;20.30;79.30;;;;;;4292480;33;20010;-82
2021/06/09 10:04:02;;;;;;;;;;;20.30;79.40;;;;;;4292077;33;20003;-81
2021/06/09 10:06:43;;;;;;;;;;;20.30;79.40;;;;;;4280002;33;20014;-81
2021/06/09 10:09:10;;;;;;;;;;;20.30;79.40;;;;;;4279949;33;20039;-81
2021/06/09 10:11:39;;;;;;;;;;;20.40;79.40;;;;;;4292261;33;20066;-81
2021/06/09 10:14:25;;;;;;;;;;;20.40;79.40;;;;;;4279909;33;20009;-81
2021/06/09 10:16:58;;;;;;;;;;;20.40;79.40;;;;;;4291993;33;20475;-81
2021/06/09 10:19:37;;;;;;;;;;;20.40;79.50;;;;;;4291729;33;20063;-81
2021/06/09 10:22:15;;;;;;;;;;;20.40;79.40;;;;;;4280037;33;20003;-81
2021/06/09 10:24:50;;;;;;;;;;;20.40;79.40;;;;;;4279617;33;20075;-81
2021/06/09 10:27:38;;;;;;;;;;;20.50;79.40;;;;;;4305019;33;20016;-81
2021/06/09 10:30:22;;;;;;;;;;;20.50;79.30;;;;;;4279733;33;20041;-81
2021/06/09 10:33:00;;;;;;;;;;;20.50;79.30;;;;;;4279535;33;20403;-81
2021/06/09 10:35:28;;;;;;;;;;;20.50;79.20;;;;;;4278702;33;40877;-81
2021/06/09 10:37:58;;;;;;;;;;;20.50;79.20;;;;;;4279379;33;20006;-81
2021/06/09 10:40:29;;;;;;;;;;;20.60;79.20;;;;;;4278650;33;24552;-81
2021/06/09 10:43:03;;;;;;;;;;;20.60;79.20;;;;;;4290851;33;33317;-80
2021/06/09 10:45:31;;;;;;;;;;;20.60;79.20;;;;;;4291671;33;20014;-80
2021/06/09 10:48:00;;;;;;;;;;;20.60;79.10;;;;;;4278919;33;20014;-81
2021/06/09 10:50:28;;;;;;;;;;;20.70;79.10;;;;;;4291605;33;20014;-81
2021/06/09 10:52:55;;;;;;;;;;;20.60;79.00;;;;;;4291687;33;20107;-81
2021/06/09 10:55:22;;;;;;;;;;;20.70;79.00;;;;;;4289822;33;40437;-81
2021/06/09 10:57:50;;;;;;;;;;;20.70;79.00;;;;;;4304104;33;20006;-81
2021/06/09 11:00:20;;;;;;;;;;;20.70;79.00;;;;;;4278680;33;20006;-81
2021/06/09 11:02:48;;;;;;;;;;;20.70;79.00;;;;;;4277624;33;43463;-81
2021/06/09 11:05:17;;;;;;;;;;;20.80;79.00;;;;;;4278154;33;35188;-80
2021/06/09 11:07:50;;;;;;;;;;;20.80;79.00;;;;;;4290565;33;20002;-80
2021/06/09 11:10:27;;;;;;;;;;;20.80;78.90;;;;;;4279321;33;20363;-81
2021/06/09 11:12:58;;;;;;;;;;;20.80;78.80;;;;;;4291500;33;20006;-81
2021/06/09 11:15:34;;;;;;;;;;;20.90;78.80;;;;;;4278174;33;28272;-81
2021/06/09 11:18:18;;;;;;;;;;;20.90;78.80;;;;;;4291236;33;20429;-81
2021/06/09 11:20:48;;;;;;;;;;;20.90;78.70;;;;;;4278364;33;32543;-80
2021/06/09 11:23:29;;;;;;;;;;;20.90;78.70;;;;;;4290550;33;28764;-80
2021/06/09 11:26:01;;;;;;;;;;;20.90;78.60;;;;;;4277704;33;37545;-81
2021/06/09 11:28:32;;;;;;;;;;;20.90;78.60;;;;;;4290519;33;22670;-80
2021/06/09 11:31:10;;;;;;;;;;;21.00;78.60;;;;;;4279802;33;19998;-80
2021/06/09 11:33:43;;;;;;;;;;;21.00;78.60;;;;;;4290561;33;20061;-80
2021/06/09 11:36:14;;;;;;;;;;;21.10;78.50;;;;;;4289682;33;41269;-80
2021/06/09 11:38:43;;;;;;;;;;;21.10;78.40;;;;;;4278052;33;30001;-80
2021/06/09 11:41:17;;;;;;;;;;;21.10;78.40;;;;;;4277954;33;20738;-80
2021/06/09 11:43:48;;;;;;;;;;;21.10;78.40;;;;;;4303230;33;26155;-80
2021/06/09 11:46:23;;;;;;;;;;;21.10;78.30;;;;;;4289570;33;43656;-80
2021/06/09 11:49:02;;;;;;;;;;;21.10;78.30;;;;;;4303055;33;31320;-80
2021/06/09 11:51:33;;;;;;;;;;;21.20;78.30;;;;;;4290319;33;20018;-80
2021/06/09 11:54:04;;;;;;;;;;;21.20;78.30;;;;;;4290595;33;20021;-80
2021/06/09 11:56:44;;;;;;;;;;;21.20;78.20;;;;;;4278548;33;22580;-79
2021/06/09 11:59:26;;;;;;;;;;;21.20;78.10;;;;;;4277747;33;22955;-79
2021/06/09 12:02:01;;;;;;;;;;;21.30;78.00;;;;;;4277591;33;35890;-79
2021/06/09 12:04:30;;;;;;;;;;;21.30;77.70;;;;;;4277248;33;47125;-79
2021/06/09 12:06:58;;;;;;;;;;;21.30;77.70;;;;;;4289426;33;21830;-80
2021/06/09 12:09:36;;;;;;;;;;;21.30;78.30;;;;;;4290544;33;20053;-80
2021/06/09 12:12:13;;;;;;;;;;;21.30;77.50;;;;;;4289781;33;32516;-80
2021/06/09 12:14:43;;;;;;;;;;;21.30;77.50;;;;;;4276970;33;45033;-80
2021/06/09 12:17:15;;;;;;;;;;;21.40;77.40;;;;;;4303211;33;20419;-80
2021/06/09 12:19:48;;;;;;;;;;;21.40;77.20;;;;;;4290621;33;20010;-80
2021/06/09 12:22:24;;;;;;;;;;;21.40;77.20;;;;;;4278114;33;20013;-80
2021/06/09 12:25:14;;;;;;;;;;;21.50;77.20;;;;;;4302880;33;20356;-81
2021/06/09 12:27:58;;;;;;;;;;;21.50;77.10;;;;;;4277174;33;35362;-80
2021/06/09 12:30:32;;;;;;;;;;;21.50;77.10;;;;;;4289464;33;37125;-80
2021/06/09 12:33:02;;;;;;;;;;;21.50;77.00;;;;;;4289653;33;26004;-80
2021/06/09 12:35:30;;;;;;;;;;;21.50;77.00;;;;;;4277447;33;38456;-80
2021/06/09 12:38:00;;;;;;;;;;;21.60;76.90;;;;;;4288685;33;39377;-80
2021/06/09 12:40:32;;;;;;;;;;;21.60;77.00;;;;;;4277051;33;43656;-80
2021/06/09 12:42:59;;;;;;;;;;;21.60;77.00;;;;;;4277928;33;20032;-80
2021/06/09 12:45:38;;;;;;;;;;;21.60;76.90;;;;;;4278268;33;19998;-80
2021/06/09 12:48:08;;;;;;;;;;;21.60;76.80;;;;;;4277751;33;20358;-80
2021/06/09 12:50:40;;;;;;;;;;;21.60;76.70;;;;;;4277854;33;20012;-80
2021/06/09 12:53:13;;;;;;;;;;;21.70;76.80;;;;;;4303147;33;20429;-81
2021/06/09 12:55:52;;;;;;;;;;;21.70;76.90;;;;;;4290169;33;20020;-81
2021/06/09 12:58:29;;;;;;;;;;;21.70;76.90;;;;;;4277918;33;20033;-80
2021/06/09 13:01:03;;;;;;;;;;;21.70;76.90;;;;;;4289729;33;20035;-80
2021/06/09 13:03:35;;;;;;;;;;;21.70;76.90;;;;;;4276266;33;37959;-80
2021/06/09 13:06:09;;;;;;;;;;;21.70;76.80;;;;;;4289714;33;20006;-80
2021/06/09 13:08:39;;;;;;;;;;;21.80;76.90;;;;;;4290009;33;20073;-80
2021/06/09 13:11:18;;;;;;;;;;;21.80;76.80;;;;;;4289715;33;20016;-80
2021/06/09 13:13:52;;;;;;;;;;;21.80;76.70;;;;;;4277816;33;20408;-80
2021/06/09 13:16:25;;;;;;;;;;;21.80;76.70;;;;;;4289281;33;20002;-81
2021/06/09 13:19:13;;;;;;;;;;;21.90;76.80;;;;;;4289643;33;20452;-80
2021/06/09 13:21:47;;;;;;;;;;;21.90;76.60;;;;;;4276599;33;34084;-80
2021/06/09 13:24:34;;;;;;;;;;;22.00;76.70;;;;;;4289739;33;20070;-80
2021/06/09 13:27:05;;;;;;;;;;;22.00;76.50;;;;;;4279396;33;30576;-80
2021/06/09 13:29:47;;;;;;;;;;;22.00;76.50;;;;;;4293999;33;20006;-80
2021/06/09 13:32:25;;;;;;;;;;;22.00;76.40;;;;;;4293760;33;35886;-80
2021/06/09 13:34:57;;;;;;;;;;;22.00;76.40;;;;;;4293349;33;35096;-80
2021/06/09 13:37:25;;;;;;;;;;;22.10;76.50;;;;;;4293061;33;46039;-80
2021/06/09 13:39:56;;;;;;;;;;;22.10;77.20;;;;;;4281734;33;22602;-80
2021/06/09 13:42:31;;;;;;;;;;;22.10;76.40;;;;;;4280792;33;44452;-80
2021/06/09 13:45:00;;;;;;;;;;;22.10;76.40;;;;;;4294483;33;20036;-80
2021/06/09 13:47:31;;;;;;;;;;;22.20;76.40;;;;;;4293690;33;20423;-80
2021/06/09 13:50:00;;;;;;;;;;;22.20;76.30;;;;;;4294298;33;20009;-80
2021/06/09 13:52:30;;;;;;;;;;;22.20;76.20;;;;;;4293667;33;20022;-81
2021/06/09 13:55:05;;;;;;;;;;;22.20;76.10;;;;;;4293218;33;20014;-80
2021/06/09 13:57:44;;;;;;;;;;;22.30;76.00;;;;;;4307479;33;20020;-81
2021/06/09 14:00:11;;;;;;;;;;;22.20;76.00;;;;;;4281463;33;19998;-81
2021/06/09 14:02:46;;;;;;;;;;;22.30;76.20;;;;;;4293845;33;20041;-81
2021/06/09 14:05:19;;;;;;;;;;;22.30;76.20;;;;;;4293536;33;20065;-81
2021/06/09 14:07:51;;;;;;;;;;;22.30;76.10;;;;;;4282371;33;20026;-81
2021/06/09 14:10:40;;;;;;;;;;;22.40;76.20;;;;;;4282606;33;19999;-81
2021/06/09 14:13:16;;;;;;;;;;;22.40;76.10;;;;;;4281330;33;40289;-81
2021/06/09 14:16:08;;;;;;;;;;;22.40;76.10;;;;;;4293518;33;20001;-81
2021/06/09 14:18:44;;;;;;;;;;;22.40;76.10;;;;;;4281000;33;38740;-81
2021/06/09 14:21:14;;;;;;;;;;;22.50;76.00;;;;;;4293241;33;35950;-81
2021/06/09 14:23:49;;;;;;;;;;;22.50;75.80;;;;;;4293415;33;26704;-81
2021/06/09 14:26:16;;;;;;;;;;;22.50;75.70;;;;;;4280594;33;39743;-81
2021/06/09 14:28:45;;;;;;;;;;;22.50;75.80;;;;;;4293083;33;25649;-81
2021/06/09 14:31:20;;;;;;;;;;;22.50;75.80;;;;;;4281243;33;32939;-81
2021/06/09 14:39:04;;;;;;;;;;;22.60;75.80;;;;;;4304137;33;32123;-81
2021/06/09 14:41:41;;;;;;;;;;;22.70;75.80;;;;;;4278751;33;36464;-80
2021/06/09 14:46:59;;;;;;;;;;;22.70;75.70;;;;;;4289999;33;39622;-81
2021/06/09 14:49:30;;;;;;;;;;;22.80;75.80;;;;;;4289999;33;40728;-81
2021/06/09 14:51:58;;;;;;;;;;;22.80;75.80;;;;;;4279530;33;20054;-81
2021/06/09 14:54:28;;;;;;;;;;;22.80;75.70;;;;;;4292064;33;20344;-81